International Virtual Aviation Organisation

Eastern Europe and Northern Asia MCD

 
UHMM 121300Z 06001MPS 9999 SCT030 M15/M19 Q1016 RMK QFE747 R28/00000MPS
QNH:(hPa/inHg/mmHg)1016 / 30 / 762
QFE:(hPa/inHg/mmHg)995 / 29.37 / 746
Temperature-15
Dew Point-19
Visibility> 10000
Weather
Cloud CoverSCT (3000);
Transition Height2150 m./7700 ft.
Transition LevelFL90
SQUAWK